Česky Dansk Deutsch English Español Suomi Français Magyar Italiano Nederlands norsk Polski Português svenska Türkçe

 

Het Weer

Anapa / Vitiazevo (Rusland)

08:00, 23 augustus 2016 (GMT)

NWNNE
WE
SWSSE
Home            
Anapa / Vitiazevo Krasnodar Simferopol Adler Rostov-Na-Donu Donetsk Zaporizhzhia / Mokraya Stavropol / Shpakovskoye Samsun / Carsamba Samsun Dnipropetrovs'k Mineral'Nye Vody Krivyy Rih / Dnipropetrovs'k Merzifon Trabzon Mykolaiv Tokat Nalchik Odesa Elista Kharkiv Sivas Zonguldak

Om een weerknop op uw website of weblog te plaatsen, copieer onderstaande code en plak die in uw pagina. In het eerste vakje staat HTML-code, in het tweede vakje UBB-code.


Add to Google

Details

Wind speed:3 bf, 9.7 kn, 5 m/s, 11.2 miles/h, 18.0 km/h
Wind direction:SSW, 210° - W, 280°
Visibility:Greater than 10000 m, 10 km, 32800 ft, 6.2 miles
Temperature:29°C, 84°F
Gefühlte Temperatur:33°C, 92°F
Dew-point:24°C, 75°F
Atmospheric pressure:1011 hPa, 758.3 mmHg, 29.85 inHg, 0.998 atm
Relative humidity:74.5 %
METAR:URKA 230800Z 24005MPS 210V280 9999 SCTCB 29/24 Q1011 R22/010070 RMK QFE753/1005

Snelkoppelingen

Actuele weersinformatie van de hele wereld. Voeg locaties toe met het plus (+) symbool. Deze snelkoppelingen kunnen worden toegevoegd aan Google.

Lid van de Technetium groep

website free tracking
StatCounter NetStat W3C Validator

26-11-2022 02:26:58
astro.technetium.be money.technetium.be phote.technetium.be tafeltennistafel.technetium.be www.ligfiets.net